Time;durP1;ratioP1;P1;durP2;ratioP2;P2;SDS_P1;SDS_P2;PMS_P1;PMS_P2;Temp;Humidity;BMP_temperature;BMP_pressure;BME280_temperature;BME280_humidity;BME280_pressure;Samples;Min_cycle;Max_cycle;Signal;HPM_P1;HPM_P2
2022/12/22 03:26:54;;;;;;;47.30;18.67;;;;;;;-142.25;100.00;58004.16;4959614;28;20055;-65
2022/12/22 03:29:20;;;;;;;45.93;19.20;;;;;;;-142.25;100.00;58004.16;4963853;28;20043;-64
2022/12/22 03:31:45;;;;;;;45.10;19.57;;;;;;;-142.25;100.00;58004.16;4962461;28;20031;-65
2022/12/22 03:34:11;;;;;;;45.67;19.13;;;;;;;-142.25;100.00;58004.16;4965721;28;20148;-65
2022/12/22 03:36:37;;;;;;;42.70;18.97;;;;;;;-142.25;100.00;58004.16;4962973;28;20058;-65
2022/12/22 03:39:03;;;;;;;43.30;19.97;;;;;;;-142.25;100.00;58004.16;4948438;28;20035;-66
2022/12/22 03:47:00;;;;;;;42.03;19.60;;;;;;;-142.25;100.00;58004.16;4964095;28;20051;-66
2022/12/22 03:49:26;;;;;;;42.77;18.47;;;;;;;-142.25;100.00;58004.16;4966358;28;20073;-63
2022/12/22 03:51:52;;;;;;;44.90;19.17;;;;;;;-142.25;100.00;58004.16;4969467;28;20042;-65
2022/12/22 03:54:20;;;;;;;38.77;17.23;;;;;;;-142.25;100.00;58004.16;4977162;28;20060;-66
2022/12/22 03:56:47;;;;;;;48.40;19.93;;;;;;;-142.25;100.00;58004.16;4965472;28;20133;-64
2022/12/22 03:59:13;;;;;;;43.20;19.63;;;;;;;-142.25;100.00;58004.16;4963346;28;20585;-65
2022/12/22 04:01:41;;;;;;;45.70;21.93;;;;;;;-142.25;100.00;58004.16;4961641;28;20051;-66
2022/12/22 04:04:07;;;;;;;42.80;18.47;;;;;;;-142.25;100.00;58004.16;4960131;28;20474;-69
2022/12/22 04:06:33;;;;;;;46.20;21.93;;;;;;;-142.25;100.00;58004.16;4963045;28;20122;-65
2022/12/22 04:08:59;;;;;;;50.70;19.67;;;;;;;-142.25;100.00;58004.16;4964654;28;20066;-66
2022/12/22 04:14:11;;;;;;;45.47;20.23;;;;;;;-142.25;100.00;58004.16;4971574;28;20506;-66
2022/12/22 04:16:37;;;;;;;40.30;17.83;;;;;;;-142.25;100.00;58004.16;4967570;28;20053;-65
2022/12/22 04:19:02;;;;;;;51.60;18.27;;;;;;;-142.25;100.00;58004.16;4968081;28;20363;-66
2022/12/22 04:21:28;;;;;;;46.97;20.70;;;;;;;-142.25;100.00;58004.16;4964467;28;20051;-66
2022/12/22 04:23:54;;;;;;;49.17;20.00;;;;;;;-142.25;100.00;58004.16;4969668;28;20118;-66
2022/12/22 04:26:23;;;;;;;43.97;18.47;;;;;;;-142.25;100.00;58004.16;4970625;28;20071;-66
2022/12/22 04:28:50;;;;;;;42.83;19.57;;;;;;;-142.25;100.00;58004.16;4965462;28;20549;-66
2022/12/22 04:31:16;;;;;;;46.73;20.17;;;;;;;-142.25;100.00;58004.16;4965978;28;20061;-66
2022/12/22 04:33:42;;;;;;;40.67;19.53;;;;;;;-142.25;100.00;58004.16;4963191;28;20062;-66
2022/12/22 04:36:09;;;;;;;46.07;20.83;;;;;;;-142.25;100.00;58004.16;4966008;28;20051;-66
2022/12/22 04:38:35;;;;;;;47.80;20.57;;;;;;;-142.25;100.00;58004.16;4965834;28;20070;-66
2022/12/22 04:41:02;;;;;;;49.73;20.47;;;;;;;-142.25;100.00;58004.16;4970926;28;20114;-64
2022/12/22 04:43:28;;;;;;;45.43;19.03;;;;;;;-142.25;100.00;58004.16;4965451;28;20043;-65
2022/12/22 04:45:55;;;;;;;45.93;20.87;;;;;;;-142.25;100.00;58004.16;4981654;28;20045;-66
2022/12/22 04:48:22;;;;;;;44.00;18.97;;;;;;;-142.25;100.00;58004.16;4966932;28;20050;-66
2022/12/22 04:50:51;;;;;;;48.73;24.40;;;;;;;-142.25;100.00;58004.16;4966405;28;20039;-65
2022/12/22 04:53:18;;;;;;;46.60;20.30;;;;;;;-142.25;100.00;58004.16;4962780;28;20466;-65
2022/12/22 04:55:48;;;;;;;46.23;18.90;;;;;;;-142.25;100.00;58004.16;4970831;28;20612;-68
2022/12/22 04:58:14;;;;;;;48.77;21.30;;;;;;;-142.25;100.00;58004.16;4965337;28;20051;-66
2022/12/22 05:00:39;;;;;;;48.83;19.97;;;;;;;-142.25;100.00;58004.16;4965299;28;20051;-67
2022/12/22 05:03:06;;;;;;;45.87;20.70;;;;;;;-142.25;100.00;58004.16;4963884;28;20059;-66
2022/12/22 05:05:33;;;;;;;49.90;21.83;;;;;;;-142.25;100.00;58004.16;4965366;28;20050;-64
2022/12/22 05:07:58;;;;;;;55.80;22.67;;;;;;;-142.25;100.00;58004.16;4963240;28;20070;-64
2022/12/22 05:10:24;;;;;;;57.90;22.87;;;;;;;-142.25;100.00;58004.16;4966704;28;20105;-65
2022/12/22 05:12:55;;;;;;;49.67;19.80;;;;;;;-142.25;100.00;58004.16;4964725;28;20130;-64
2022/12/22 05:15:26;;;;;;;49.30;22.00;;;;;;;-142.25;100.00;58004.16;4963570;28;20504;-65
2022/12/22 05:17:53;;;;;;;59.10;20.70;;;;;;;-142.25;100.00;58004.16;4963116;28;20553;-65
2022/12/22 05:20:19;;;;;;;49.80;20.30;;;;;;;-142.25;100.00;58004.16;4963970;28;20041;-65
2022/12/22 05:22:45;;;;;;;46.10;20.67;;;;;;;-142.25;100.00;58004.16;4962457;28;20043;-65
2022/12/22 05:25:11;;;;;;;48.27;21.13;;;;;;;-142.25;100.00;58004.16;4963324;28;20043;-65
2022/12/22 05:27:37;;;;;;;59.03;23.77;;;;;;;-142.25;100.00;58004.16;4963743;28;20136;-65
2022/12/22 05:30:04;;;;;;;50.33;21.97;;;;;;;-142.25;100.00;58004.16;4967980;28;20751;-65
2022/12/22 05:32:32;;;;;;;48.77;20.40;;;;;;;-142.25;100.00;58004.16;4961333;28;20582;-66
2022/12/22 05:34:57;;;;;;;50.33;21.40;;;;;;;-142.25;100.00;58004.16;4965137;28;20501;-65
2022/12/22 05:37:23;;;;;;;54.13;20.93;;;;;;;-142.25;100.00;58004.16;4962384;28;20042;-64
2022/12/22 05:39:49;;;;;;;54.10;21.97;;;;;;;-142.25;100.00;58004.16;4963021;28;20438;-65
2022/12/22 05:42:34;;;;;;;53.87;21.67;;;;;;;-142.25;100.00;58004.16;4980342;28;20039;-65
2022/12/22 05:45:17;;;;;;;48.08;19.75;;;;;;;-142.25;100.00;58004.16;4962511;28;20145;-65
2022/12/22 05:47:49;;;;;;;51.43;21.37;;;;;;;-142.25;100.00;58004.16;4961162;28;20216;-66
2022/12/22 05:50:19;;;;;;;48.13;18.80;;;;;;;-142.25;100.00;58004.16;4962472;28;20049;-67
2022/12/22 05:52:56;;;;;;;41.93;19.97;;;;;;;-142.25;100.00;58004.16;4960402;28;20082;-69
2022/12/22 05:55:21;;;;;;;87.03;24.17;;;;;;;-142.25;100.00;58004.16;4960991;28;20653;-69
2022/12/22 05:57:47;;;;;;;67.97;20.83;;;;;;;-142.25;100.00;58004.16;4962390;28;20043;-68
2022/12/22 06:00:14;;;;;;;47.30;19.37;;;;;;;-142.25;100.00;58004.16;4960968;28;20401;-67
2022/12/22 06:02:41;;;;;;;56.53;21.43;;;;;;;-142.25;100.00;58004.16;4961737;28;20101;-67
2022/12/22 06:05:08;;;;;;;38.40;19.17;;;;;;;-142.25;100.00;58004.16;4963843;28;20050;-67
2022/12/22 06:07:34;;;;;;;43.37;18.90;;;;;;;-142.25;100.00;58004.16;4963916;28;20051;-64
2022/12/22 06:10:00;;;;;;;37.23;17.67;;;;;;;-142.25;100.00;58004.16;4962671;28;20059;-70
2022/12/22 06:12:25;;;;;;;38.23;16.97;;;;;;;-142.25;100.00;58004.16;4964122;28;20068;-71
2022/12/22 06:14:51;;;;;;;49.63;17.47;;;;;;;-142.25;100.00;58004.16;4957782;28;20042;-68
2022/12/22 06:17:17;;;;;;;52.60;17.67;;;;;;;-142.25;100.00;58004.16;4960375;28;20050;-68
2022/12/22 06:19:43;;;;;;;59.70;17.97;;;;;;;-142.25;100.00;58004.16;4960601;28;20154;-69
2022/12/22 06:22:09;;;;;;;51.60;17.43;;;;;;;-142.25;100.00;58004.16;4960580;28;20046;-70
2022/12/22 06:24:34;;;;;;;59.37;18.93;;;;;;;-142.25;100.00;58004.16;4961384;28;20053;-68
2022/12/22 06:27:00;;;;;;;135.63;22.60;;;;;;;-142.25;100.00;58004.16;4965816;28;20047;-69
2022/12/22 06:29:26;;;;;;;80.73;20.70;;;;;;;-142.25;100.00;58004.16;4959831;28;20129;-68
2022/12/22 06:31:52;;;;;;;47.97;16.33;;;;;;;-142.25;100.00;58004.16;4963432;28;20408;-68
2022/12/22 06:34:18;;;;;;;113.50;21.50;;;;;;;-142.25;100.00;58004.16;4963139;28;20038;-68
2022/12/22 06:36:44;;;;;;;117.50;20.23;;;;;;;-142.25;100.00;58004.16;4967503;28;20390;-69
2022/12/22 06:39:11;;;;;;;122.33;24.10;;;;;;;-142.25;100.00;58004.16;4963564;28;20047;-68
2022/12/22 06:44:21;;;;;;;109.20;21.07;;;;;;;-142.25;100.00;58004.16;4965215;28;20046;-68
2022/12/22 06:46:47;;;;;;;95.60;23.63;;;;;;;-142.25;100.00;58004.16;4961533;28;20398;-70
2022/12/22 06:49:13;;;;;;;73.90;19.73;;;;;;;-142.25;100.00;58004.16;4964576;28;20094;-70
2022/12/22 06:51:38;;;;;;;94.80;20.77;;;;;;;-142.25;100.00;58004.16;4976615;28;20035;-68
2022/12/22 06:54:04;;;;;;;58.57;19.97;;;;;;;-142.25;100.00;58004.16;4962578;28;20058;-65
2022/12/22 06:56:30;;;;;;;199.03;28.07;;;;;;;-142.25;100.00;58004.16;4960683;28;20105;-67
2022/12/22 06:58:55;;;;;;;194.93;28.43;;;;;;;-142.25;100.00;58004.16;4964721;28;20031;-67
2022/12/22 07:01:21;;;;;;;113.83;23.63;;;;;;;-142.25;100.00;58004.16;4953511;28;20090;-67
2022/12/22 07:03:49;;;;;;;159.70;29.93;;;;;;;-142.25;100.00;58004.16;4962428;28;20043;-66
2022/12/22 07:06:18;;;;;;;158.20;28.23;;;;;;;-142.25;100.00;58004.16;4963168;28;20512;-66
2022/12/22 07:08:45;;;;;;;203.80;32.53;;;;;;;-142.25;100.00;58004.16;4978142;28;20080;-67
2022/12/22 07:11:10;;;;;;;114.20;26.50;;;;;;;-142.25;100.00;58004.16;4964219;28;20125;-67
2022/12/22 07:13:37;;;;;;;74.13;23.33;;;;;;;-142.25;100.00;58004.16;4961387;28;20065;-67
2022/12/22 07:16:05;;;;;;;85.27;22.37;;;;;;;-142.25;100.00;58004.16;4963171;28;20997;-66
2022/12/22 07:18:39;;;;;;;107.93;25.13;;;;;;;-142.25;100.00;58004.16;4965037;28;20032;-67
2022/12/22 07:21:08;;;;;;;49.43;21.93;;;;;;;-142.25;100.00;58004.16;4965421;28;20133;-70
2022/12/22 07:23:34;;;;;;;84.87;24.77;;;;;;;-142.25;100.00;58004.16;4965076;28;20034;-68
2022/12/22 07:26:00;;;;;;;119.87;23.53;;;;;;;-142.25;100.00;58004.16;4963310;28;20067;-67
2022/12/22 07:28:25;;;;;;;72.03;20.57;;;;;;;-142.25;100.00;58004.16;4966260;28;20106;-70
2022/12/22 07:30:52;;;;;;;150.57;26.17;;;;;;;-142.25;100.00;58004.16;4965874;28;20039;-71
2022/12/22 07:33:18;;;;;;;83.10;20.77;;;;;;;-142.25;100.00;58004.16;4964818;28;20039;-70
2022/12/22 07:35:44;;;;;;;114.23;22.33;;;;;;;-142.25;100.00;58004.16;4968054;28;20043;-68
2022/12/22 07:38:10;;;;;;;106.30;22.30;;;;;;;-142.25;100.00;58004.16;4963595;28;20136;-69
2022/12/22 07:40:35;;;;;;;60.97;20.97;;;;;;;-142.25;100.00;58004.16;4955708;28;20525;-70
2022/12/22 07:43:01;;;;;;;115.27;24.93;;;;;;;-142.25;100.00;58004.16;4970309;28;20046;-68
2022/12/22 07:45:27;;;;;;;137.90;25.43;;;;;;;-142.25;100.00;58004.16;4966734;28;20483;-68
2022/12/22 07:48:00;;;;;;;130.30;26.13;;;;;;;-142.25;100.00;58004.16;4980891;28;20780;-69
2022/12/22 07:50:27;;;;;;;135.97;25.87;;;;;;;-142.25;100.00;58004.16;4968815;28;20050;-68
2022/12/22 07:52:59;;;;;;;121.20;25.03;;;;;;;-142.25;100.00;58004.16;4962668;28;20055;-68
2022/12/22 07:55:28;;;;;;;129.70;27.83;;;;;;;-142.25;100.00;58004.16;4962650;28;20061;-69
2022/12/22 07:57:54;;;;;;;135.97;27.57;;;;;;;-142.25;100.00;58004.16;4964376;28;20262;-67
2022/12/22 08:00:21;;;;;;;105.07;26.03;;;;;;;-142.25;100.00;58004.16;4967572;28;20113;-67
2022/12/22 08:02:56;;;;;;;129.60;26.67;;;;;;;-142.25;100.00;58004.16;4966870;28;20086;-65
2022/12/22 08:05:24;;;;;;;105.35;24.13;;;;;;;-142.25;100.00;58004.16;4968773;28;20051;-65
2022/12/22 08:07:51;;;;;;;123.83;26.37;;;;;;;-142.25;100.00;58004.16;4959704;28;20051;-65
2022/12/22 08:10:18;;;;;;;85.33;22.77;;;;;;;-142.25;100.00;58004.16;4966733;28;20084;-64
2022/12/22 08:12:44;;;;;;;74.97;22.53;;;;;;;-142.25;100.00;58004.16;4965950;28;20054;-64
2022/12/22 08:15:10;;;;;;;90.73;26.53;;;;;;;-142.25;100.00;58004.16;4968213;28;20047;-66
2022/12/22 08:17:36;;;;;;;110.43;23.63;;;;;;;-142.25;100.00;58004.16;4969046;28;20062;-64
2022/12/22 08:20:03;;;;;;;82.57;23.20;;;;;;;-142.25;100.00;58004.16;4967700;28;20051;-64
2022/12/22 08:22:29;;;;;;;80.13;22.07;;;;;;;-142.25;100.00;58004.16;4967602;28;20580;-65
2022/12/22 08:24:56;;;;;;;76.67;22.80;;;;;;;-142.25;100.00;58004.16;4967368;28;20505;-66
2022/12/22 08:27:30;;;;;;;82.93;25.27;;;;;;;-142.25;100.00;58004.16;4965141;28;20038;-67
2022/12/22 08:29:59;;;;;;;83.07;23.95;;;;;;;-142.25;100.00;58004.16;4964679;28;20098;-64
2022/12/22 08:32:25;;;;;;;81.10;23.43;;;;;;;-142.25;100.00;58004.16;4965566;28;20050;-65
2022/12/22 08:34:52;;;;;;;79.07;22.93;;;;;;;-142.25;100.00;58004.16;4966538;28;20057;-66
2022/12/22 08:37:21;;;;;;;51.90;18.87;;;;;;;-142.25;100.00;58004.16;4965333;28;20065;-67
2022/12/22 08:39:52;;;;;;;60.07;23.60;;;;;;;-142.25;100.00;58004.16;4962001;28;20165;-66
2022/12/22 08:42:20;;;;;;;58.23;21.73;;;;;;;-142.25;100.00;58004.16;4963135;28;20045;-65
2022/12/22 08:44:51;;;;;;;51.13;19.93;;;;;;;-142.25;100.00;58004.16;4965639;28;20046;-68
2022/12/22 08:47:18;;;;;;;61.83;25.27;;;;;;;-142.25;100.00;58004.16;4964327;28;20561;-68
2022/12/22 08:49:43;;;;;;;55.37;22.23;;;;;;;-142.25;100.00;58004.16;4964604;28;20033;-66
2022/12/22 08:52:09;;;;;;;47.30;20.87;;;;;;;-142.25;100.00;58004.16;4964447;28;20046;-64
2022/12/22 08:54:35;;;;;;;48.33;19.27;;;;;;;-142.25;100.00;58004.16;4962978;28;20130;-67
2022/12/22 08:57:01;;;;;;;45.43;19.17;;;;;;;-142.25;100.00;58004.16;4961172;28;20522;-67
2022/12/22 08:59:26;;;;;;;49.13;18.93;;;;;;;-142.25;100.00;58004.16;4964394;28;20125;-67
2022/12/22 09:01:52;;;;;;;53.23;18.97;;;;;;;-142.25;100.00;58004.16;4964777;28;20094;-65
2022/12/22 09:04:20;;;;;;;48.50;18.73;;;;;;;-142.25;100.00;58004.16;4964901;28;20046;-66
2022/12/22 09:06:46;;;;;;;46.50;19.10;;;;;;;-142.25;100.00;58004.16;4963773;28;20042;-65
2022/12/22 09:09:13;;;;;;;46.50;21.23;;;;;;;-142.25;100.00;58004.16;4959194;28;20382;-64
2022/12/22 09:11:40;;;;;;;45.23;19.30;;;;;;;-142.25;100.00;58004.16;4960158;28;20042;-66
2022/12/22 09:14:07;;;;;;;41.93;17.80;;;;;;;-142.25;100.00;58004.16;4954933;28;20090;-64
2022/12/22 09:16:33;;;;;;;40.53;18.83;;;;;;;-142.25;100.00;58004.16;4961851;28;20054;-65
2022/12/22 09:18:59;;;;;;;44.00;19.33;;;;;;;-142.25;100.00;58004.16;4963055;28;20461;-65
2022/12/22 09:21:26;;;;;;;44.57;18.50;;;;;;;-142.25;100.00;58004.16;4960461;28;20042;-65
2022/12/22 09:23:52;;;;;;;39.63;17.47;;;;;;;-142.25;100.00;58004.16;4959494;28;20034;-69
2022/12/22 09:26:21;;;;;;;36.63;15.73;;;;;;;-142.25;100.00;58004.16;4961479;28;20206;-64
2022/12/22 09:28:47;;;;;;;38.77;16.47;;;;;;;-142.25;100.00;58004.16;4964476;28;20093;-65
2022/12/22 09:31:14;;;;;;;39.20;17.10;;;;;;;-142.25;100.00;58004.16;4964262;28;20043;-67
2022/12/22 09:33:40;;;;;;;32.47;15.97;;;;;;;-142.25;100.00;58004.16;4963015;28;20083;-66
2022/12/22 09:36:11;;;;;;;37.53;19.90;;;;;;;-142.25;100.00;58004.16;4967184;28;20197;-65
2022/12/22 09:38:39;;;;;;;42.83;19.07;;;;;;;-142.25;100.00;58004.16;4963370;28;20353;-68
2022/12/22 09:41:16;;;;;;;36.80;16.70;;;;;;;-142.25;100.00;58004.16;4962775;28;20035;-64
2022/12/22 09:43:42;;;;;;;43.00;18.13;;;;;;;-142.25;100.00;58004.16;4967570;28;20151;-65
2022/12/22 09:46:30;;;;;;;34.53;17.20;;;;;;;-142.25;100.00;58004.16;4963205;28;20066;-65
2022/12/22 09:48:57;;;;;;;38.77;16.63;;;;;;;-142.25;100.00;58004.16;4964290;28;20655;-66
2022/12/22 09:51:23;;;;;;;42.10;18.67;;;;;;;-142.25;100.00;58004.16;4960726;28;20141;-64
2022/12/22 09:53:56;;;;;;;39.30;18.37;;;;;;;-142.25;100.00;58004.16;4963772;28;20092;-65
2022/12/22 09:56:23;;;;;;;33.80;16.10;;;;;;;-142.25;100.00;58004.16;4960055;28;20046;-66
2022/12/22 09:58:48;;;;;;;35.67;16.50;;;;;;;-142.25;100.00;58004.16;4961956;28;20108;-66
2022/12/22 10:01:48;;;;;;;38.13;17.93;;;;;;;-142.25;100.00;58004.16;4964667;28;20051;-65
2022/12/22 10:04:35;;;;;;;37.73;17.87;;;;;;;-142.25;100.00;58004.16;4965844;28;20136;-63
2022/12/22 10:07:31;;;;;;;35.47;17.50;;;;;;;-142.25;100.00;58004.16;4960357;28;20468;-70
2022/12/22 10:10:04;;;;;;;34.55;17.00;;;;;;;-142.25;100.00;58004.16;4957565;28;20053;-70
2022/12/22 10:12:30;;;;;;;37.20;16.80;;;;;;;-142.25;100.00;58004.16;4959077;28;20065;-70
2022/12/22 10:14:55;;;;;;;41.77;18.47;;;;;;;-142.25;100.00;58004.16;4976900;28;20582;-70
2022/12/22 10:17:26;;;;;;;40.50;19.33;;;;;;;-142.25;100.00;58004.16;4966122;28;20047;-69
2022/12/22 10:20:04;;;;;;;39.60;17.73;;;;;;;-142.25;100.00;58004.16;4962702;28;20488;-68
2022/12/22 10:22:34;;;;;;;42.77;18.80;;;;;;;-142.25;100.00;58004.16;4964249;28;20330;-70
2022/12/22 10:25:02;;;;;;;39.83;18.60;;;;;;;-142.25;100.00;58004.16;4964286;28;20039;-69
2022/12/22 10:27:31;;;;;;;42.37;20.17;;;;;;;-142.25;100.00;58004.16;4962199;28;20414;-69
2022/12/22 10:30:30;;;;;;;45.23;19.20;;;;;;;-142.25;100.00;58004.16;4960340;28;20137;-69
2022/12/22 10:33:14;;;;;;;56.93;25.37;;;;;;;-142.25;100.00;58004.16;4950808;28;20039;-69
2022/12/22 10:35:55;;;;;;;85.67;38.10;;;;;;;-142.25;100.00;58004.16;4959959;28;20043;-69
2022/12/22 10:38:27;;;;;;;70.87;31.80;;;;;;;-142.25;100.00;58004.16;4955622;28;20040;-70
2022/12/22 10:41:00;;;;;;;42.77;21.60;;;;;;;-142.25;100.00;58004.16;4957797;28;20051;-70
2022/12/22 10:43:36;;;;;;;46.17;21.43;;;;;;;-142.25;100.00;58004.16;4967457;28;20382;-68
2022/12/22 10:46:03;;;;;;;41.50;20.27;;;;;;;-142.25;100.00;58004.16;4975726;28;20050;-70
2022/12/22 10:48:38;;;;;;;45.57;20.40;;;;;;;-142.25;100.00;58004.16;4963642;28;20031;-71
2022/12/22 10:51:07;;;;;;;48.03;23.03;;;;;;;-142.25;100.00;58004.16;4964702;28;20042;-69
2022/12/22 10:53:41;;;;;;;44.23;21.23;;;;;;;-142.25;100.00;58004.16;4960690;28;20052;-69
2022/12/22 10:56:21;;;;;;;46.90;21.17;;;;;;;-142.25;100.00;58004.16;4960061;28;20046;-70
2022/12/22 10:59:07;;;;;;;45.53;21.27;;;;;;;-142.25;100.00;58004.16;4963965;28;20059;-66
2022/12/22 11:01:35;;;;;;;42.10;20.67;;;;;;;-142.25;100.00;58004.16;4964189;28;20048;-69
2022/12/22 11:04:24;;;;;;;42.83;20.03;;;;;;;-142.25;100.00;58004.16;4960220;28;20241;-66
2022/12/22 11:06:51;;;;;;;49.83;20.70;;;;;;;-142.25;100.00;58004.16;4936203;28;20111;-73
2022/12/22 11:09:17;;;;;;;46.33;21.33;;;;;;;-142.25;100.00;58004.16;4960800;28;20035;-72
2022/12/22 11:12:10;;;;;;;47.07;21.73;;;;;;;-142.25;100.00;58004.16;4962915;28;20061;-74
2022/12/22 11:14:48;;;;;;;58.63;24.53;;;;;;;-142.25;100.00;58004.16;4962009;28;20039;-71
2022/12/22 11:17:25;;;;;;;46.57;21.77;;;;;;;-142.25;100.00;58004.16;4961849;28;20042;-72
2022/12/22 11:19:56;;;;;;;48.03;23.40;;;;;;;-142.25;100.00;58004.16;4961089;28;20047;-72
2022/12/22 11:22:30;;;;;;;53.90;25.13;;;;;;;-142.25;100.00;58004.16;4964444;28;20608;-72
2022/12/22 11:25:10;;;;;;;53.63;23.33;;;;;;;-142.25;100.00;58004.16;4961641;28;20046;-71
2022/12/22 11:27:46;;;;;;;44.67;22.70;;;;;;;-142.25;100.00;58004.16;4961034;28;20047;-71
2022/12/22 11:30:19;;;;;;;50.10;23.00;;;;;;;-142.25;100.00;58004.16;4964595;28;20038;-71
2022/12/22 11:33:14;;;;;;;56.63;25.03;;;;;;;-142.25;100.00;58004.16;4962233;28;20640;-72
2022/12/22 11:35:51;;;;;;;52.78;24.50;;;;;;;-142.25;100.00;58004.16;4969393;28;20532;-73
2022/12/22 11:38:44;;;;;;;55.37;24.60;;;;;;;-142.25;100.00;58004.16;4958207;28;20050;-76
2022/12/22 11:41:25;;;;;;;49.27;24.20;;;;;;;-142.25;100.00;58004.16;4963513;28;20043;-73
2022/12/22 11:44:09;;;;;;;52.83;25.70;;;;;;;-142.25;100.00;58004.16;4968965;28;20035;-73
2022/12/22 11:46:50;;;;;;;58.00;27.03;;;;;;;-142.25;100.00;58004.16;4971179;28;20066;-72
2022/12/22 11:49:53;;;;;;;64.97;27.47;;;;;;;-142.25;100.00;58004.16;4962256;28;20047;-70
2022/12/22 11:52:56;;;;;;;52.90;23.17;;;;;;;-142.25;100.00;58004.16;4958361;28;20040;-72
2022/12/22 11:55:58;;;;;;;69.00;25.30;;;;;;;-142.25;100.00;58004.16;4963308;28;20046;-71
2022/12/22 11:58:39;;;;;;;59.17;24.50;;;;;;;-142.25;100.00;58004.16;4961578;28;20069;-72
2022/12/22 12:01:47;;;;;;;59.70;24.97;;;;;;;-142.25;100.00;58004.16;4963756;28;20100;-71
2022/12/22 12:04:26;;;;;;;59.97;25.30;;;;;;;-142.25;100.00;58004.16;4962006;28;20046;-71
2022/12/22 12:07:16;;;;;;;60.30;24.57;;;;;;;-142.25;100.00;58004.16;4965942;28;20742;-72
2022/12/22 12:10:02;;;;;;;70.33;32.53;;;;;;;-142.25;100.00;58004.16;4966722;28;20054;-75
2022/12/22 12:13:09;;;;;;;69.00;33.13;;;;;;;-142.25;100.00;58004.16;4968318;28;20171;-73
2022/12/22 12:15:39;;;;;;;64.30;27.50;;;;;;;-142.25;100.00;58004.16;4970272;28;20158;-71
2022/12/22 12:18:22;;;;;;;63.10;29.33;;;;;;;-142.25;100.00;58004.16;4960169;28;20043;-70
2022/12/22 12:21:23;;;;;;;58.87;26.00;;;;;;;-142.25;100.00;58004.16;4979386;28;20514;-70
2022/12/22 12:24:11;;;;;;;53.07;24.67;;;;;;;-142.25;100.00;58004.16;4965891;28;20101;-68
2022/12/22 12:26:48;;;;;;;54.87;25.17;;;;;;;-142.25;100.00;58004.16;4964805;28;20384;-67
2022/12/22 12:29:27;;;;;;;61.37;22.87;;;;;;;-142.25;100.00;58004.16;4964404;28;20043;-68
2022/12/22 12:32:08;;;;;;;62.87;27.80;;;;;;;-142.25;100.00;58004.16;4962946;28;20073;-70
2022/12/22 12:34:41;;;;;;;53.17;24.47;;;;;;;-142.25;100.00;58004.16;4968463;28;20050;-68
2022/12/22 12:37:27;;;;;;;56.57;25.47;;;;;;;-142.25;100.00;58004.16;4964951;28;20042;-67
2022/12/22 12:40:25;;;;;;;57.07;26.67;;;;;;;-142.25;100.00;58004.16;4966103;28;20450;-67
2022/12/22 12:42:53;;;;;;;64.10;27.43;;;;;;;-142.25;100.00;58004.16;4947616;28;20051;-69
2022/12/22 12:45:31;;;;;;;65.07;28.03;;;;;;;-142.25;100.00;58004.16;4953657;28;20177;-70
2022/12/22 12:48:20;;;;;;;65.40;29.37;;;;;;;-142.25;100.00;58004.16;4978546;28;20039;-71
2022/12/22 12:50:47;;;;;;;67.17;28.60;;;;;;;-142.25;100.00;58004.16;4961467;28;20639;-69
2022/12/22 12:53:13;;;;;;;75.43;29.63;;;;;;;-142.25;100.00;58004.16;4964206;28;20126;-71
2022/12/22 12:55:39;;;;;;;71.23;31.13;;;;;;;-142.25;100.00;58004.16;4963490;28;20104;-71
2022/12/22 12:58:09;;;;;;;82.47;31.80;;;;;;;-142.25;100.00;58004.16;4964476;28;20932;-69
2022/12/22 13:00:35;;;;;;;72.77;28.73;;;;;;;-142.25;100.00;58004.16;4963597;28;20042;-69
2022/12/22 13:03:04;;;;;;;63.87;27.60;;;;;;;-142.25;100.00;58004.16;4962727;28;20089;-69
2022/12/22 13:05:54;;;;;;;56.90;28.03;;;;;;;-142.25;100.00;58004.16;4963194;28;20047;-70
2022/12/22 13:08:30;;;;;;;60.77;26.00;;;;;;;-142.25;100.00;58004.16;4954218;28;20063;-70
2022/12/22 13:10:56;;;;;;;56.87;24.20;;;;;;;-142.25;100.00;58004.16;4971482;28;20038;-68
2022/12/22 13:13:22;;;;;;;51.33;24.03;;;;;;;-142.25;100.00;58004.16;4964707;28;20525;-69
2022/12/22 13:16:00;;;;;;;53.63;24.37;;;;;;;-142.25;100.00;58004.16;4963520;28;20448;-68
2022/12/22 13:18:29;;;;;;;53.67;24.27;;;;;;;-142.25;100.00;58004.16;4965069;28;20501;-69
2022/12/22 13:21:04;;;;;;;42.83;22.47;;;;;;;-142.25;100.00;58004.16;4963732;28;20039;-71
2022/12/22 13:23:43;;;;;;;;;;;;;;;-142.25;100.00;58004.16;4966704;28;20034;-70
2022/12/22 13:26:42;;;;;;;49.10;21.53;;;;;;;-142.25;100.00;58004.16;4962273;28;19926;-68
2022/12/22 13:29:29;;;;;;;50.30;21.50;;;;;;;-142.25;100.00;58004.16;4954125;28;20053;-71
2022/12/22 13:32:02;;;;;;;45.07;22.17;;;;;;;-142.25;100.00;58004.16;4977624;28;20202;-69
2022/12/22 13:34:34;;;;;;;49.67;23.57;;;;;;;-142.25;100.00;58004.16;4960274;28;20093;-67
2022/12/22 13:37:15;;;;;;;37.13;19.90;;;;;;;-142.25;100.00;58004.16;4945004;28;20777;-68
2022/12/22 13:39:41;;;;;;;44.17;22.07;;;;;;;-142.25;100.00;58004.16;4957505;28;20122;-71
2022/12/22 13:42:10;;;;;;;46.07;24.07;;;;;;;-142.25;100.00;58004.16;4962556;28;20034;-69
2022/12/22 13:44:37;;;;;;;49.30;21.70;;;;;;;-142.25;100.00;58004.16;4953624;28;20057;-67
2022/12/22 13:47:13;;;;;;;42.87;20.83;;;;;;;-142.25;100.00;58004.16;4962266;28;20076;-68
2022/12/22 13:49:40;;;;;;;43.93;21.57;;;;;;;-142.25;100.00;58004.16;4961930;28;20038;-67
2022/12/22 13:52:16;;;;;;;44.33;22.97;;;;;;;-142.25;100.00;58004.16;4962333;28;20402;-68
2022/12/22 13:54:42;;;;;;;;;;;;;;;-142.25;100.00;58004.16;4962969;28;20557;-71
2022/12/22 13:57:16;;;;;;;39.07;21.57;;;;;;;-142.25;100.00;58004.16;4961472;28;19928;-69
2022/12/22 13:59:43;;;;;;;55.67;26.23;;;;;;;-142.25;100.00;58004.16;4959898;28;20142;-69
2022/12/22 14:02:10;;;;;;;56.17;26.70;;;;;;;-142.25;100.00;58004.16;4963326;28;20042;-67
2022/12/22 14:04:38;;;;;;;55.27;26.10;;;;;;;-142.25;100.00;58004.16;4979227;28;20109;-69
2022/12/22 14:07:18;;;;;;;78.50;40.10;;;;;;;-142.25;100.00;58004.16;4966314;28;20130;-65
2022/12/22 14:09:46;;;;;;;84.60;43.33;;;;;;;-142.25;100.00;58004.16;4966131;28;20049;-66
2022/12/22 14:12:15;;;;;;;80.10;36.30;;;;;;;-142.25;100.00;58004.16;4968053;28;20642;-67
2022/12/22 14:14:44;;;;;;;86.47;37.80;;;;;;;-142.25;100.00;58004.16;4966854;28;20134;-61
2022/12/22 14:17:35;;;;;;;81.43;35.90;;;;;;;-142.25;100.00;58004.16;4969212;28;20038;-73
2022/12/22 14:20:14;;;;;;;86.27;38.03;;;;;;;-142.25;100.00;58004.16;4960460;28;20055;-71
2022/12/22 14:22:50;;;;;;;75.23;33.37;;;;;;;-142.25;100.00;58004.16;4962314;28;20323;-65
2022/12/22 14:25:43;;;;;;;73.35;33.15;;;;;;;-142.25;100.00;58004.16;4959157;28;20130;-71
2022/12/22 14:28:20;;;;;;;63.97;31.57;;;;;;;-142.25;100.00;58004.16;4959948;28;20540;-70
2022/12/22 14:30:50;;;;;;;61.80;31.27;;;;;;;-142.25;100.00;58004.16;4959484;28;20043;-64
2022/12/22 14:33:27;;;;;;;58.80;31.10;;;;;;;-142.25;100.00;58004.16;4962987;28;20085;-70
2022/12/22 14:36:15;;;;;;;56.83;26.47;;;;;;;-142.25;100.00;58004.16;4954992;28;20050;-70
2022/12/22 14:38:46;;;;;;;63.37;27.60;;;;;;;-142.25;100.00;58004.16;4960531;28;20121;-69
2022/12/22 14:41:56;;;;;;;59.50;29.67;;;;;;;-142.25;100.00;58004.16;4958236;28;20125;-69
2022/12/22 14:44:21;;;;;;;80.30;36.37;;;;;;;-142.25;100.00;58004.16;4956850;28;20080;-69
2022/12/22 14:47:07;;;;;;;78.60;37.73;;;;;;;-142.25;100.00;58004.16;4959579;28;20512;-71
2022/12/22 14:49:34;;;;;;;77.57;39.43;;;;;;;-142.25;100.00;58004.16;4958556;28;20054;-69
2022/12/22 14:52:13;;;;;;;73.13;36.73;;;;;;;-142.25;100.00;58004.16;4959447;28;20047;-69